Aviation Digital Data Service (ADDS)

Output produced by METARs form (2235 UTC 23 March 2019)
found at http://www.aviationweather.gov/metar/data/
 
Forecast for: DIYO (YAMOUSSOUKRO , CI)
Text: TAF DIYO 231700Z 2318/2418 24005KT 9999 SCT012
Forecast period: 1800 UTC 23 March 2019 to 1800 UTC 24 March 2019
Forecast type: FROM: standard forecast or significant change
Winds: from the WSW (240 degrees) at 6 MPH (5 knots; 2.6 m/s)
Visibility: 6 or more miles 10+ km)
Ceiling: at least 12,000 feet AGL
Clouds: scattered clouds at 1200 feet AGL
Weather: no significant weather forecast for this period
Text: TEMPO 2405/2409 4000 BR
Forecast period: 0500 to 0900 UTC 24 March 2019
Forecast type: TEMPORARY: The following changes expected for less than half the time period
Visibility: 2.49 miles (4.01 km)
Ceiling: unknown
Clouds: missing
Weather: BR  (mist)
Text: TEMPO 2415/2418 TS BKN013 FEW025CB
Forecast period: 1500 to 1800 UTC 24 March 2019
Forecast type: TEMPORARY: The following changes expected for less than half the time period
Visibility: missing
Ceiling: 1300 feet AGL
Clouds: broken clouds at 1300 feet AGL
few clouds at 2500 feet AGL
Weather: TS  (thunderstorm)